createdAt,value
2022-09-06T00:00:23.791Z,4.07
2022-09-06T00:03:12.369Z,4.07
2022-09-06T00:06:08.202Z,3.65
2022-09-06T00:08:56.721Z,3.78
2022-09-06T00:11:45.139Z,3.10
2022-09-06T00:14:33.626Z,3.90
2022-09-06T00:17:22.424Z,3.72
2022-09-06T00:20:11.231Z,3.90
2022-09-06T00:23:02.182Z,3.78
2022-09-06T00:25:50.668Z,3.45
2022-09-06T00:28:39.455Z,3.55
2022-09-06T00:31:28.816Z,3.72
2022-09-06T00:34:17.409Z,3.55
2022-09-06T00:37:05.871Z,3.75
2022-09-06T00:39:55.759Z,3.97
2022-09-06T00:42:44.421Z,3.47
2022-09-06T00:45:33.479Z,3.20
2022-09-06T00:48:22.933Z,3.10
2022-09-06T00:51:13.208Z,3.80
2022-09-06T00:54:04.411Z,3.58
2022-09-06T00:56:54.236Z,3.50
2022-09-06T00:59:44.302Z,3.50
2022-09-06T01:02:32.912Z,3.42
2022-09-06T01:05:22.359Z,3.10
2022-09-06T01:08:18.384Z,3.70
2022-09-06T01:11:18.689Z,3.30
2022-09-06T01:14:15.918Z,3.67
2022-09-06T01:17:11.654Z,3.40
2022-09-06T01:20:30.730Z,3.80
2022-09-06T01:23:54.891Z,3.40
2022-09-06T01:27:18.331Z,3.22
2022-09-06T01:30:09.792Z,3.25
2022-09-06T01:33:02.170Z,3.85
2022-09-06T01:35:53.462Z,3.00
2022-09-06T01:38:41.911Z,3.50
2022-09-06T01:41:30.925Z,3.00
2022-09-06T01:44:19.510Z,3.70
2022-09-06T01:47:18.849Z,3.00
2022-09-06T01:50:38.743Z,3.22
2022-09-06T01:53:38.450Z,3.53
2022-09-06T01:56:33.946Z,2.60
2022-09-06T01:59:32.600Z,3.20
2022-09-06T02:02:26.938Z,2.85
2022-09-06T02:05:23.139Z,3.05
2022-09-06T02:08:14.512Z,3.60
2022-09-06T02:11:04.714Z,2.80
2022-09-06T02:13:56.783Z,3.30
2022-09-06T02:16:47.474Z,3.20
2022-09-06T02:19:39.599Z,3.00
2022-09-06T02:22:31.814Z,3.47
2022-09-06T02:25:23.903Z,3.40
2022-09-06T02:28:12.683Z,3.20
2022-09-06T02:31:03.489Z,3.28
2022-09-06T02:33:52.859Z,3.38
2022-09-06T02:36:43.383Z,3.08
2022-09-06T02:39:32.011Z,2.75
2022-09-06T02:42:20.561Z,3.38
2022-09-06T02:45:10.393Z,3.38
2022-09-06T02:47:58.933Z,3.08
2022-09-06T02:50:47.384Z,2.83
2022-09-06T02:53:39.755Z,3.00
2022-09-06T02:56:28.268Z,3.40
2022-09-06T02:59:16.817Z,3.05
2022-09-06T03:02:05.374Z,3.13
2022-09-06T03:04:58.136Z,2.80
2022-09-06T03:07:46.676Z,3.50
2022-09-06T03:10:36.522Z,2.88
2022-09-06T03:13:25.945Z,2.70
2022-09-06T03:16:14.485Z,3.03
2022-09-06T03:19:03.298Z,3.40
2022-09-06T03:21:51.859Z,2.85
2022-09-06T03:24:40.721Z,3.28
2022-09-06T03:27:30.590Z,2.72
2022-09-06T03:30:19.252Z,2.90
2022-09-06T03:33:07.771Z,3.40
2022-09-06T03:35:58.431Z,3.13
2022-09-06T03:38:47.055Z,2.97
2022-09-06T03:41:35.520Z,3.13
2022-09-06T03:44:25.514Z,3.00
2022-09-06T03:47:17.549Z,2.95
2022-09-06T03:50:09.291Z,2.75
2022-09-06T03:52:57.821Z,3.33
2022-09-06T03:55:46.819Z,3.30
2022-09-06T03:58:35.320Z,2.80
2022-09-06T04:01:25.550Z,3.22
2022-09-06T04:04:14.092Z,2.67
2022-09-06T04:07:02.625Z,4.05
2022-09-06T04:09:51.143Z,2.88
2022-09-06T04:12:39.802Z,3.40
2022-09-06T04:15:28.329Z,3.42
2022-09-06T04:18:18.562Z,2.83
2022-09-06T04:21:07.498Z,3.55
2022-09-06T04:23:56.048Z,3.38
2022-09-06T04:26:44.571Z,3.25
2022-09-06T04:29:33.078Z,3.17
2022-09-06T04:32:21.551Z,3.10
2022-09-06T04:35:11.720Z,3.78
2022-09-06T04:38:02.260Z,2.67
2022-09-06T04:40:50.829Z,3.05
2022-09-06T04:43:39.487Z,3.30
2022-09-06T04:46:29.878Z,3.53
2022-09-06T04:49:18.399Z,3.53
2022-09-06T04:52:08.227Z,3.65
2022-09-06T04:54:56.737Z,3.33
2022-09-06T04:57:49.541Z,3.20
2022-09-06T05:00:41.734Z,3.65
2022-09-06T05:03:30.255Z,3.17
2022-09-06T05:06:24.539Z,3.28
2022-09-06T05:09:14.934Z,2.88
2022-09-06T05:12:03.866Z,3.38
2022-09-06T05:14:52.375Z,3.35
2022-09-06T05:17:40.808Z,3.28
2022-09-06T05:20:29.344Z,3.22
2022-09-06T05:23:17.793Z,3.55
2022-09-06T05:26:07.778Z,2.92
2022-09-06T05:28:56.260Z,2.65
2022-09-06T05:31:44.808Z,3.03
2022-09-06T05:34:33.333Z,3.10
2022-09-06T05:37:21.801Z,4.03
2022-09-06T05:40:11.386Z,3.50
2022-09-06T05:43:01.246Z,3.50
2022-09-06T05:45:51.321Z,3.28
2022-09-06T05:48:40.045Z,3.00
2022-09-06T05:51:28.559Z,3.65
2022-09-06T05:54:17.166Z,3.47
2022-09-06T05:57:05.944Z,3.90
2022-09-06T05:59:56.057Z,3.38
2022-09-06T06:02:47.921Z,3.53
2022-09-06T06:05:36.540Z,3.20
2022-09-06T06:08:25.095Z,4.00
2022-09-06T06:11:14.110Z,3.13
2022-09-06T06:14:03.771Z,4.07
2022-09-06T06:16:53.664Z,3.17
2022-09-06T06:19:42.198Z,3.67
2022-09-06T06:22:30.617Z,2.67
2022-09-06T06:25:23.127Z,3.45
2022-09-06T06:28:11.590Z,3.15
2022-09-06T06:31:00.622Z,2.83
2022-09-06T06:33:50.491Z,2.60
2022-09-06T06:36:39.519Z,3.03
2022-09-06T06:39:28.057Z,3.17
2022-09-06T06:42:16.539Z,3.38
2022-09-06T06:45:05.565Z,3.47
2022-09-06T06:47:54.064Z,3.13
2022-09-06T06:50:43.897Z,3.22
2022-09-06T06:53:32.841Z,3.35
2022-09-06T06:56:25.258Z,3.25
2022-09-06T06:59:13.788Z,3.17
2022-09-06T07:02:02.412Z,3.92
2022-09-06T07:04:50.913Z,3.70
2022-09-06T07:07:41.113Z,3.20
2022-09-06T07:10:33.466Z,3.47
2022-09-06T07:13:22.439Z,3.03
2022-09-06T07:16:13.298Z,3.70
2022-09-06T07:19:01.880Z,3.50
2022-09-06T07:21:53.233Z,2.75
2022-09-06T07:24:43.337Z,3.17
2022-09-06T07:27:48.013Z,3.33
2022-09-06T07:30:38.573Z,3.10
2022-09-06T07:33:27.093Z,3.25
2022-09-06T07:36:15.645Z,3.78
2022-09-06T07:39:04.540Z,2.70
2022-09-06T07:41:54.452Z,3.72
2022-09-06T07:44:42.974Z,3.75
2022-09-06T07:53:32.880Z,3.63
2022-09-06T07:56:22.710Z,3.03
2022-09-06T07:59:12.683Z,3.55
2022-09-06T08:02:01.275Z,3.65
2022-09-06T08:04:51.615Z,3.38
2022-09-06T08:07:40.621Z,2.80
2022-09-06T08:10:31.426Z,3.28
2022-09-06T08:13:19.990Z,2.97
2022-09-06T08:16:11.759Z,2.95
2022-09-06T08:19:01.457Z,2.97
2022-09-06T08:21:49.970Z,2.70
2022-09-06T08:24:38.670Z,2.75
2022-09-06T08:27:27.215Z,2.50
2022-09-06T08:30:15.840Z,2.78
2022-09-06T08:33:05.825Z,2.75
2022-09-06T08:35:57.508Z,2.95
2022-09-06T08:38:46.673Z,2.90
2022-09-06T08:41:39.660Z,2.53
2022-09-06T08:47:39.960Z,2.50
2022-09-06T08:50:31.891Z,2.90
2022-09-06T08:53:21.028Z,2.75
2022-09-06T08:56:16.387Z,2.80
2022-09-06T08:59:06.679Z,3.15
2022-09-06T09:02:01.662Z,2.75
2022-09-06T09:04:53.896Z,3.25
2022-09-06T09:07:45.844Z,2.55
2022-09-06T09:10:42.210Z,3.15
2022-09-06T09:13:36.225Z,2.80
2022-09-06T09:16:24.944Z,3.25
2022-09-06T09:19:13.457Z,3.10
2022-09-06T09:22:02.634Z,3.00
2022-09-06T09:24:53.107Z,3.35
2022-09-06T09:27:42.161Z,3.35
2022-09-06T09:30:49.134Z,2.95
2022-09-06T09:33:39.156Z,3.40
2022-09-06T09:36:29.985Z,3.08
2022-09-06T09:39:19.565Z,3.00
2022-09-06T09:42:10.547Z,3.42
2022-09-06T09:44:59.335Z,3.08
2022-09-06T09:47:48.187Z,2.60
2022-09-06T09:50:37.268Z,3.13
2022-09-06T09:53:27.050Z,2.90
2022-09-06T09:56:16.507Z,3.35
2022-09-06T09:59:10.024Z,3.03
2022-09-06T10:02:01.475Z,3.10
2022-09-06T10:04:51.963Z,3.60
2022-09-06T10:07:45.232Z,3.33
2022-09-06T10:10:36.278Z,3.08
2022-09-06T10:13:26.577Z,3.17
2022-09-06T10:16:16.579Z,3.50
2022-09-06T10:19:23.561Z,3.05
2022-09-06T10:22:30.503Z,2.88
2022-09-06T10:25:39.079Z,3.03
2022-09-06T10:28:33.293Z,3.45
2022-09-06T10:32:01.241Z,3.08
2022-09-06T10:35:05.818Z,2.92
2022-09-06T10:38:08.564Z,3.28
2022-09-06T10:41:02.226Z,2.67
2022-09-06T10:43:57.709Z,3.95
2022-09-06T10:46:47.220Z,3.40
2022-09-06T10:49:37.909Z,3.95
2022-09-06T10:52:31.459Z,3.30
2022-09-06T10:55:21.615Z,3.40
2022-09-06T11:01:03.806Z,2.97
2022-09-06T11:03:55.562Z,2.75
2022-09-06T11:06:52.901Z,2.70
2022-09-06T11:09:46.185Z,2.92
2022-09-06T11:12:38.501Z,2.70
2022-09-06T11:15:28.298Z,2.92
2022-09-06T11:18:19.615Z,2.55
2022-09-06T11:21:28.312Z,2.80
2022-09-06T11:24:18.178Z,2.38
2022-09-06T11:27:17.621Z,2.95
2022-09-06T11:30:07.088Z,2.88
2022-09-06T11:33:14.537Z,3.25
2022-09-06T11:36:19.047Z,2.60
2022-09-06T11:39:09.634Z,3.10
2022-09-06T11:41:58.372Z,2.70
2022-09-06T11:45:11.345Z,2.60
2022-09-06T11:48:37.510Z,3.65
2022-09-06T11:51:38.459Z,2.85
2022-09-06T11:54:32.146Z,2.90
2022-09-06T11:57:23.453Z,3.10
2022-09-06T12:00:21.881Z,3.00
2022-09-06T12:06:22.154Z,2.92
2022-09-06T12:09:30.027Z,3.20
2022-09-06T12:12:43.121Z,3.15
2022-09-06T12:15:32.966Z,2.90
2022-09-06T12:18:55.111Z,2.55
2022-09-06T12:21:47.535Z,2.70
2022-09-06T12:24:56.678Z,3.13
2022-09-06T12:27:52.864Z,3.30
2022-09-06T12:30:43.072Z,3.05
2022-09-06T12:33:33.880Z,2.50
2022-09-06T12:36:24.144Z,2.63
2022-09-06T12:39:15.116Z,2.97
2022-09-06T12:42:05.197Z,2.38
2022-09-06T12:44:57.761Z,3.03
2022-09-06T12:47:46.484Z,2.72
2022-09-06T12:50:35.039Z,2.33
2022-09-06T12:53:25.504Z,2.88
2022-09-06T12:56:15.437Z,2.50
2022-09-06T12:59:23.460Z,3.00
2022-09-06T13:02:14.785Z,2.80
2022-09-06T13:05:06.626Z,3.00
2022-09-06T13:07:57.952Z,3.10
2022-09-06T13:10:47.928Z,2.85
2022-09-06T13:13:37.870Z,2.83
2022-09-06T13:16:29.495Z,2.70
2022-09-06T13:19:21.683Z,2.67
2022-09-06T13:22:11.820Z,2.42
2022-09-06T13:25:00.339Z,2.58
2022-09-06T13:27:51.111Z,2.53
2022-09-06T13:30:49.042Z,2.17
2022-09-06T13:33:39.140Z,2.70
2022-09-06T13:36:30.671Z,1.75
2022-09-06T13:39:32.538Z,1.17
2022-09-06T13:42:31.550Z,0.93
2022-09-06T13:45:25.665Z,1.83
2022-09-06T13:48:28.699Z,0.93
2022-09-06T13:51:18.371Z,1.23
2022-09-06T13:54:07.797Z,1.65
2022-09-06T13:56:56.452Z,1.40
2022-09-06T13:59:46.319Z,1.77
2022-09-06T14:02:34.899Z,2.00
2022-09-06T14:05:24.711Z,2.08
2022-09-06T14:08:13.185Z,1.95
2022-09-06T14:11:02.731Z,1.73
2022-09-06T14:13:51.241Z,1.80
2022-09-06T14:16:39.803Z,1.77
2022-09-06T14:19:28.876Z,1.50
2022-09-06T14:22:18.828Z,1.88
2022-09-06T14:25:08.175Z,2.10
2022-09-06T14:27:56.744Z,1.83
2022-09-06T14:30:45.316Z,2.05
2022-09-06T14:33:33.827Z,1.65
2022-09-06T14:36:23.928Z,2.08
2022-09-06T14:39:14.145Z,2.10
2022-09-06T14:42:02.837Z,1.92
2022-09-06T14:44:51.465Z,2.25
2022-09-06T14:47:40.177Z,2.28
2022-09-06T14:50:28.947Z,2.13
2022-09-06T14:53:38.773Z,2.30
2022-09-06T14:56:27.630Z,1.85
2022-09-06T14:59:16.241Z,2.35
2022-09-06T15:02:05.334Z,1.98
2022-09-06T15:04:54.995Z,2.08
2022-09-06T15:07:43.717Z,2.67
2022-09-06T15:10:32.480Z,2.28
2022-09-06T15:13:22.527Z,2.22
2022-09-06T15:16:12.561Z,2.53
2022-09-06T15:19:02.273Z,2.33
2022-09-06T15:21:58.685Z,2.47
2022-09-06T15:24:47.369Z,2.55
2022-09-06T15:27:37.807Z,2.30
2022-09-06T15:30:27.821Z,2.25
2022-09-06T15:33:17.722Z,3.13
2022-09-06T15:36:08.483Z,2.63
2022-09-06T15:38:59.206Z,3.08
2022-09-06T15:41:47.879Z,2.80
2022-09-06T15:44:36.526Z,2.67
2022-09-06T15:47:26.555Z,2.80
2022-09-06T15:50:25.269Z,3.15
2022-09-06T15:53:23.522Z,2.88
2022-09-06T15:56:19.896Z,3.45
2022-09-06T15:59:08.613Z,2.90
2022-09-06T16:01:57.265Z,3.13
2022-09-06T16:04:47.486Z,2.60
2022-09-06T16:07:38.211Z,2.92
2022-09-06T16:10:26.712Z,2.83
2022-09-06T16:13:15.455Z,3.05
2022-09-06T16:16:05.927Z,2.97
2022-09-06T16:18:54.549Z,3.08
2022-09-06T16:21:44.827Z,3.22
2022-09-06T16:24:33.604Z,3.13
2022-09-06T16:27:22.106Z,3.53
2022-09-06T16:30:13.872Z,3.30
2022-09-06T16:33:02.380Z,3.53
2022-09-06T16:35:50.879Z,3.72
2022-09-06T16:38:41.345Z,3.67
2022-09-06T16:41:34.600Z,3.67
2022-09-06T16:44:24.227Z,5.00
2022-09-06T16:47:16.463Z,4.63
2022-09-06T16:50:06.208Z,4.90
2022-09-06T16:52:54.720Z,5.05
2022-09-06T16:55:44.636Z,4.05
2022-09-06T16:58:33.317Z,4.93
2022-09-06T17:01:22.179Z,3.95
2022-09-06T17:04:12.686Z,4.55
2022-09-06T17:07:01.270Z,4.43
2022-09-06T17:09:50.546Z,4.85
2022-09-06T17:12:40.944Z,4.00
2022-09-06T17:15:49.701Z,4.13
2022-09-06T17:18:37.332Z,4.10
2022-09-06T17:21:26.550Z,3.45
2022-09-06T17:24:15.608Z,3.53
2022-09-06T17:27:05.831Z,3.97
2022-09-06T17:29:55.798Z,3.88
2022-09-06T17:32:46.749Z,4.38
2022-09-06T17:35:35.318Z,4.18
2022-09-06T17:38:23.973Z,4.03
2022-09-06T17:41:20.694Z,4.05
2022-09-06T17:44:10.924Z,4.40
2022-09-06T17:47:12.494Z,3.55
2022-09-06T17:50:02.099Z,4.05
2022-09-06T17:52:53.552Z,3.90
2022-09-06T17:55:42.109Z,3.92
2022-09-06T17:58:30.767Z,4.13
2022-09-06T18:01:19.330Z,3.50
2022-09-06T18:04:13.048Z,3.78
2022-09-06T18:07:01.586Z,3.95
2022-09-06T18:09:50.267Z,4.22
2022-09-06T18:12:39.021Z,3.42
2022-09-06T18:15:27.613Z,4.10
2022-09-06T18:18:17.987Z,3.67
2022-09-06T18:21:08.670Z,3.92
2022-09-06T18:23:58.796Z,3.97
2022-09-06T18:26:47.396Z,3.67
2022-09-06T18:29:36.117Z,3.65
2022-09-06T18:32:24.829Z,3.85
2022-09-06T18:35:13.575Z,3.47
2022-09-06T18:38:05.729Z,3.78
2022-09-06T18:40:56.545Z,3.63
2022-09-06T18:43:45.139Z,3.47
2022-09-06T18:46:38.084Z,3.20
2022-09-06T18:49:27.285Z,3.17
2022-09-06T18:52:16.136Z,3.40
2022-09-06T18:55:07.234Z,3.20
2022-09-06T18:57:56.944Z,3.03
2022-09-06T19:00:45.602Z,2.83
2022-09-06T19:03:34.515Z,3.88
2022-09-06T19:06:23.550Z,2.90
2022-09-06T19:09:14.315Z,2.55
2022-09-06T19:12:07.256Z,3.05
2022-09-06T19:14:55.789Z,3.10
2022-09-06T19:17:45.687Z,2.80
2022-09-06T19:20:34.358Z,2.90
2022-09-06T19:23:23.846Z,2.60
2022-09-06T19:26:16.902Z,2.60
2022-09-06T19:29:08.833Z,2.90
2022-09-06T19:31:57.463Z,2.92
2022-09-06T19:34:45.938Z,2.70
2022-09-06T19:37:34.822Z,2.80
2022-09-06T19:40:23.384Z,2.90
2022-09-06T19:43:11.966Z,3.22
2022-09-06T19:46:04.758Z,3.00
2022-09-06T19:48:55.955Z,3.30
2022-09-06T19:51:46.245Z,3.00
2022-09-06T19:54:34.845Z,2.90
2022-09-06T19:57:25.767Z,3.00
2022-09-06T20:00:15.876Z,2.80
2022-09-06T20:03:05.808Z,2.92
2022-09-06T20:05:58.111Z,3.47
2022-09-06T20:08:57.086Z,3.50
2022-09-06T20:11:48.966Z,3.35
2022-09-06T20:14:37.508Z,3.25
2022-09-06T20:17:34.280Z,2.78
2022-09-06T20:20:24.906Z,3.05
2022-09-06T20:23:13.639Z,3.45
2022-09-06T20:26:03.486Z,3.05
2022-09-06T20:28:56.374Z,3.42
2022-09-06T20:31:44.975Z,2.97
2022-09-06T20:34:35.094Z,3.33
2022-09-06T20:37:25.009Z,3.30
2022-09-06T20:40:14.204Z,3.38
2022-09-06T20:43:02.897Z,3.83
2022-09-06T20:45:51.440Z,3.10
2022-09-06T20:48:44.399Z,3.30
2022-09-06T20:51:40.215Z,3.25
2022-09-06T20:54:30.151Z,3.00
2022-09-06T20:57:18.699Z,3.03
2022-09-06T21:00:12.443Z,3.63
2022-09-06T21:03:02.752Z,3.47
2022-09-06T21:05:51.579Z,3.05
2022-09-06T21:08:42.769Z,2.97
2022-09-06T21:11:33.247Z,3.58
2022-09-06T21:14:22.754Z,3.05
2022-09-06T21:17:11.339Z,3.28
2022-09-06T21:20:00.058Z,3.38
2022-09-06T21:22:48.586Z,2.88
2022-09-06T21:25:37.427Z,2.83
2022-09-06T21:28:29.010Z,3.45
2022-09-06T21:31:19.690Z,3.47
2022-09-06T21:34:15.478Z,2.78
2022-09-06T21:37:05.146Z,3.63
2022-09-06T21:39:53.747Z,3.05
2022-09-06T21:42:42.298Z,2.75
2022-09-06T21:45:32.163Z,2.50
2022-09-06T21:48:20.737Z,2.80
2022-09-06T21:51:09.565Z,3.33
2022-09-06T21:53:58.279Z,2.80
2022-09-06T21:56:46.815Z,2.85
2022-09-06T21:59:35.648Z,2.95
2022-09-06T22:02:27.162Z,2.92
2022-09-06T22:05:15.943Z,2.90
2022-09-06T22:08:05.013Z,2.63
2022-09-06T22:10:54.162Z,3.03
2022-09-06T22:13:42.920Z,2.95
2022-09-06T22:16:35.544Z,3.05
2022-09-06T22:19:25.759Z,3.20
2022-09-06T22:22:14.432Z,2.97
2022-09-06T22:25:02.929Z,2.92
2022-09-06T22:27:51.561Z,3.80
2022-09-06T22:30:40.110Z,3.00
2022-09-06T22:33:29.349Z,3.10
2022-09-06T22:36:19.282Z,8.40
2022-09-06T22:39:07.755Z,11.52
2022-09-06T22:41:56.263Z,8.15
2022-09-06T22:44:44.791Z,7.05
2022-09-06T22:47:33.891Z,5.65
2022-09-06T22:50:23.680Z,5.38
2022-09-06T22:53:13.623Z,6.13
2022-09-06T22:56:03.447Z,4.82
2022-09-06T22:58:51.952Z,5.28
2022-09-06T23:01:40.746Z,4.85
2022-09-06T23:04:29.446Z,4.95
2022-09-06T23:07:18.009Z,4.68
2022-09-06T23:10:08.898Z,4.63
2022-09-06T23:12:57.940Z,4.43
2022-09-06T23:15:48.013Z,4.18
2022-09-06T23:18:36.857Z,4.78
2022-09-06T23:21:27.107Z,4.45
2022-09-06T23:24:16.117Z,3.33
2022-09-06T23:27:06.208Z,3.60
2022-09-06T23:29:54.709Z,3.38
2022-09-06T23:32:43.292Z,3.42
2022-09-06T23:35:31.858Z,3.55
2022-09-06T23:38:20.578Z,3.45
2022-09-06T23:41:10.376Z,3.97
2022-09-06T23:44:00.461Z,3.67
2022-09-06T23:46:49.134Z,4.40
2022-09-06T23:49:37.692Z,5.03
2022-09-06T23:52:26.176Z,6.18
2022-09-06T23:55:14.791Z,4.60
2022-09-06T23:58:03.322Z,4.57
